createdAt,value
2022-10-23T00:02:02.602Z,3.33
2022-10-23T00:04:08.812Z,3.38
2022-10-23T00:06:12.022Z,2.97
2022-10-23T00:08:13.918Z,2.50
2022-10-23T00:10:15.818Z,2.65
2022-10-23T00:12:17.837Z,2.90
2022-10-23T00:14:23.463Z,2.63
2022-10-23T00:16:25.674Z,2.80
2022-10-23T00:18:27.875Z,2.33
2022-10-23T00:20:30.165Z,2.70
2022-10-23T00:22:32.112Z,2.88
2022-10-23T00:24:34.276Z,2.97
2022-10-23T00:28:40.194Z,2.72
2022-10-23T00:30:42.366Z,3.03
2022-10-23T00:34:45.919Z,3.20
2022-10-23T00:36:48.875Z,2.88
2022-10-23T00:38:51.856Z,3.00
2022-10-23T00:40:54.000Z,2.63
2022-10-23T00:45:34.638Z,2.80
2022-10-23T00:47:36.660Z,2.90
2022-10-23T00:49:42.753Z,2.83
2022-10-23T00:51:49.018Z,3.03
2022-10-23T00:54:12.641Z,3.17
2022-10-23T00:56:18.836Z,2.50
2022-10-23T01:00:50.442Z,2.50
2022-10-23T01:02:53.344Z,2.63
2022-10-23T01:04:55.283Z,2.35
2022-10-23T01:07:09.388Z,3.17
2022-10-23T01:09:28.581Z,2.67
2022-10-23T01:11:45.368Z,2.78
2022-10-23T01:14:16.349Z,2.60
2022-10-23T01:16:33.825Z,3.58
2022-10-23T01:18:47.852Z,2.58
2022-10-23T01:21:08.055Z,2.80
2022-10-23T01:23:33.206Z,2.42
2022-10-23T01:26:26.181Z,2.75
2022-10-23T01:28:39.380Z,2.78
2022-10-23T01:30:44.540Z,2.80
2022-10-23T01:32:54.125Z,2.38
2022-10-23T01:35:18.950Z,2.55
2022-10-23T01:37:27.183Z,2.55
2022-10-23T01:39:34.259Z,2.67
2022-10-23T01:41:46.060Z,5.10
2022-10-23T01:43:57.238Z,3.00
2022-10-23T01:46:04.577Z,2.65
2022-10-23T01:48:10.561Z,3.22
2022-10-23T01:50:14.703Z,2.47
2022-10-23T01:52:18.105Z,2.88
2022-10-23T01:54:23.810Z,2.72
2022-10-23T01:56:35.066Z,2.90
2022-10-23T01:58:38.543Z,2.65
2022-10-23T02:00:42.587Z,2.50
2022-10-23T02:02:47.636Z,2.80
2022-10-23T02:05:24.159Z,3.10
2022-10-23T02:07:26.256Z,2.50
2022-10-23T02:11:33.109Z,2.87
2022-10-23T02:13:46.395Z,2.55
2022-10-23T02:16:04.380Z,2.47
2022-10-23T02:18:31.682Z,3.03
2022-10-23T02:21:02.567Z,2.70
2022-10-23T02:23:29.103Z,3.03
2022-10-23T02:25:40.670Z,2.25
2022-10-23T02:27:52.811Z,2.90
2022-10-23T02:30:07.924Z,2.65
2022-10-23T02:32:11.428Z,2.40
2022-10-23T02:34:13.295Z,2.75
2022-10-23T02:36:18.198Z,3.22
2022-10-23T02:38:40.618Z,2.75
2022-10-23T02:40:44.911Z,2.70
2022-10-23T02:42:57.668Z,2.60
2022-10-23T02:45:27.031Z,2.53
2022-10-23T02:48:12.340Z,3.30
2022-10-23T02:50:46.643Z,2.53
2022-10-23T02:53:06.757Z,2.63
2022-10-23T02:55:22.163Z,2.78
2022-10-23T02:57:28.835Z,3.03
2022-10-23T02:59:52.316Z,3.10
2022-10-23T03:02:16.397Z,4.15
2022-10-23T03:04:21.340Z,3.70
2022-10-23T03:06:23.990Z,4.00
2022-10-23T03:08:25.850Z,3.53
2022-10-23T03:10:27.740Z,3.20
2022-10-23T03:12:29.599Z,3.20
2022-10-23T03:14:31.512Z,3.10
2022-10-23T03:16:33.365Z,2.83
2022-10-23T03:18:35.349Z,3.45
2022-10-23T03:20:37.227Z,3.40
2022-10-23T03:22:40.185Z,3.92
2022-10-23T03:24:42.313Z,4.35
2022-10-23T03:26:44.143Z,3.97
2022-10-23T03:28:46.097Z,3.70
2022-10-23T03:30:47.957Z,3.58
2022-10-23T03:32:49.817Z,3.60
2022-10-23T03:34:51.866Z,3.63
2022-10-23T03:36:53.816Z,4.43
2022-10-23T03:38:57.022Z,3.65
2022-10-23T03:40:58.906Z,4.90
2022-10-23T03:43:00.773Z,4.40
2022-10-23T03:45:02.745Z,4.22
2022-10-23T03:47:05.199Z,4.57
2022-10-23T03:49:07.035Z,4.53
2022-10-23T03:51:09.926Z,4.63
2022-10-23T03:53:11.784Z,4.32
2022-10-23T03:55:14.503Z,4.30
2022-10-23T03:57:16.389Z,4.72
2022-10-23T03:59:18.365Z,5.07
2022-10-23T04:01:20.285Z,5.38
2022-10-23T04:03:22.217Z,4.97
2022-10-23T04:05:24.087Z,4.93
2022-10-23T04:07:25.963Z,5.25
2022-10-23T04:09:27.868Z,6.93
2022-10-23T04:11:29.770Z,5.90
2022-10-23T04:13:31.615Z,6.22
2022-10-23T04:15:33.456Z,6.18
2022-10-23T04:17:35.396Z,6.70
2022-10-23T04:19:37.279Z,5.70
2022-10-23T04:21:39.197Z,6.72
2022-10-23T04:23:41.145Z,6.63
2022-10-23T04:25:42.999Z,6.25
2022-10-23T04:27:45.229Z,7.40
2022-10-23T04:29:47.395Z,6.22
2022-10-23T04:31:49.371Z,6.18
2022-10-23T04:35:53.485Z,6.82
2022-10-23T04:39:57.098Z,5.93
2022-10-23T04:41:58.958Z,5.90
2022-10-23T04:44:02.045Z,6.40
2022-10-23T04:46:04.937Z,6.03
2022-10-23T04:48:06.916Z,7.07
2022-10-23T04:50:08.765Z,6.88
2022-10-23T04:52:10.597Z,7.03
2022-10-23T04:54:12.486Z,7.30
2022-10-23T04:56:15.460Z,8.07
2022-10-23T04:58:17.338Z,8.00
2022-10-23T05:00:19.684Z,7.13
2022-10-23T05:02:21.857Z,6.95
2022-10-23T05:06:25.518Z,7.33
2022-10-23T05:08:27.394Z,7.30
2022-10-23T05:10:30.020Z,7.68
2022-10-23T05:12:32.052Z,7.65
2022-10-23T05:14:33.935Z,7.85
2022-10-23T05:17:02.555Z,8.07
2022-10-23T05:19:06.762Z,7.82
2022-10-23T05:21:25.915Z,7.05
2022-10-23T05:23:30.099Z,8.00
2022-10-23T05:25:31.988Z,7.65
2022-10-23T05:27:33.869Z,6.95
2022-10-23T05:29:35.725Z,7.07
2022-10-23T05:31:37.692Z,7.80
2022-10-23T05:33:41.074Z,7.30
2022-10-23T05:35:45.012Z,7.93
2022-10-23T05:37:48.246Z,7.60
2022-10-23T05:39:50.088Z,7.68
2022-10-23T05:41:52.380Z,8.27
2022-10-23T05:43:54.356Z,8.32
2022-10-23T05:45:56.170Z,7.80
2022-10-23T05:48:05.804Z,7.45
2022-10-23T05:50:18.867Z,7.28
2022-10-23T05:52:20.800Z,9.23
2022-10-23T05:54:22.645Z,7.82
2022-10-23T05:56:24.538Z,8.40
2022-10-23T05:58:26.371Z,9.20
2022-10-23T06:00:28.312Z,9.15
2022-10-23T06:02:30.241Z,8.40
2022-10-23T06:04:33.753Z,8.32
2022-10-23T06:06:36.796Z,8.27
2022-10-23T06:08:38.693Z,8.13
2022-10-23T06:10:40.529Z,7.03
2022-10-23T06:12:42.466Z,7.22
2022-10-23T06:14:44.355Z,7.97
2022-10-23T06:16:46.254Z,8.20
2022-10-23T06:18:48.475Z,9.30
2022-10-23T06:20:50.430Z,8.55
2022-10-23T06:22:52.927Z,8.65
2022-10-23T06:24:55.115Z,9.05
2022-10-23T06:28:59.235Z,10.00
2022-10-23T06:31:07.629Z,10.20
2022-10-23T06:33:09.795Z,8.65
2022-10-23T06:35:12.091Z,9.45
2022-10-23T06:37:13.973Z,9.32
2022-10-23T06:39:15.917Z,10.27
2022-10-23T06:41:21.422Z,9.02
2022-10-23T06:43:23.354Z,7.85
2022-10-23T06:45:25.228Z,7.80
2022-10-23T06:47:27.105Z,10.25
2022-10-23T06:49:28.959Z,8.00
2022-10-23T06:51:30.837Z,8.20
2022-10-23T06:53:33.044Z,9.05
2022-10-23T06:55:35.048Z,8.98
2022-10-23T06:59:38.711Z,7.67
2022-10-23T07:01:40.835Z,7.43
2022-10-23T07:03:42.990Z,6.93
2022-10-23T07:05:45.034Z,11.23
2022-10-23T07:07:46.917Z,9.45
2022-10-23T07:09:48.877Z,8.25
2022-10-23T07:11:50.840Z,9.07
2022-10-23T07:13:53.997Z,9.43
2022-10-23T07:15:55.858Z,9.63
2022-10-23T07:17:57.681Z,10.10
2022-10-23T07:19:59.513Z,10.25
2022-10-23T07:22:01.425Z,11.80
2022-10-23T07:24:04.322Z,13.75
2022-10-23T07:26:07.421Z,12.45
2022-10-23T07:28:09.356Z,12.48
2022-10-23T07:30:11.886Z,13.10
2022-10-23T07:32:13.753Z,11.18
2022-10-23T07:34:15.973Z,10.40
2022-10-23T07:38:20.432Z,7.20
2022-10-23T07:40:22.355Z,6.95
2022-10-23T07:42:24.340Z,7.05
2022-10-23T07:44:27.754Z,6.50
2022-10-23T07:46:29.827Z,7.38
2022-10-23T07:48:31.674Z,7.43
2022-10-23T07:50:33.510Z,7.20
2022-10-23T07:52:36.442Z,7.07
2022-10-23T07:54:39.312Z,7.13
2022-10-23T07:56:41.152Z,7.78
2022-10-23T07:58:43.455Z,6.57
2022-10-23T08:00:45.507Z,7.07
2022-10-23T08:04:50.308Z,6.70
2022-10-23T08:06:52.481Z,6.50
2022-10-23T08:10:56.314Z,7.20
2022-10-23T08:12:58.154Z,6.32
2022-10-23T08:14:59.999Z,7.18
2022-10-23T08:19:08.820Z,8.88
2022-10-23T08:21:11.232Z,10.77
2022-10-23T08:23:14.257Z,10.52
2022-10-23T08:25:16.295Z,12.52
2022-10-23T08:29:20.165Z,9.32
2022-10-23T08:31:22.947Z,8.68
2022-10-23T08:33:25.384Z,8.07
2022-10-23T08:35:27.272Z,10.07
2022-10-23T08:37:29.108Z,14.55
2022-10-23T08:39:30.986Z,13.98
2022-10-23T08:41:36.308Z,17.45
2022-10-23T08:43:47.020Z,17.23
2022-10-23T08:46:00.164Z,12.90
2022-10-23T08:48:15.095Z,14.00
2022-10-23T08:50:32.284Z,15.85
2022-10-23T08:52:46.942Z,16.08
2022-10-23T08:54:54.742Z,16.50
2022-10-23T08:57:11.161Z,17.42
2022-10-23T08:59:40.514Z,16.52
2022-10-23T09:01:47.895Z,17.23
2022-10-23T09:03:49.816Z,16.88
2022-10-23T09:06:12.224Z,16.08
2022-10-23T09:08:22.927Z,17.48
2022-10-23T09:10:37.059Z,18.95
2022-10-23T09:12:39.699Z,16.50
2022-10-23T09:14:56.232Z,17.50
2022-10-23T09:17:25.258Z,16.90
2022-10-23T09:19:28.195Z,17.90
2022-10-23T09:21:30.631Z,18.35
2022-10-23T09:23:32.472Z,19.60
2022-10-23T09:25:39.240Z,18.77
2022-10-23T09:27:49.614Z,18.95
2022-10-23T09:29:55.597Z,15.95
2022-10-23T09:32:03.109Z,16.08
2022-10-23T09:34:06.491Z,16.77
2022-10-23T09:36:15.992Z,17.02
2022-10-23T09:38:34.358Z,17.33
2022-10-23T09:40:43.718Z,19.98
2022-10-23T09:43:01.091Z,20.85
2022-10-23T09:45:03.799Z,21.50
2022-10-23T09:47:11.459Z,21.67
2022-10-23T09:49:46.250Z,20.90
2022-10-23T09:52:01.498Z,21.92
2022-10-23T09:54:03.494Z,21.42
2022-10-23T09:56:24.478Z,27.48
2022-10-23T09:58:39.992Z,25.80
2022-10-23T10:00:51.066Z,25.17
2022-10-23T10:03:04.053Z,22.33
2022-10-23T10:05:33.280Z,21.77
2022-10-23T10:07:36.724Z,24.38
2022-10-23T10:09:38.775Z,21.45
2022-10-23T10:11:55.433Z,22.00
2022-10-23T10:14:20.476Z,24.42
2022-10-23T10:16:46.478Z,25.02
2022-10-23T10:19:11.172Z,24.13
2022-10-23T10:21:30.484Z,24.88
2022-10-23T10:23:50.384Z,23.17
2022-10-23T10:26:04.874Z,24.90
2022-10-23T10:28:16.996Z,22.10
2022-10-23T10:30:23.329Z,21.50
2022-10-23T10:32:34.088Z,20.92
2022-10-23T10:34:49.349Z,23.60
2022-10-23T10:37:20.550Z,22.30
2022-10-23T10:39:44.115Z,22.10
2022-10-23T10:41:45.937Z,20.98
2022-10-23T10:44:19.936Z,24.63
2022-10-23T10:46:31.218Z,20.42
2022-10-23T10:49:05.625Z,23.45
2022-10-23T10:51:21.596Z,20.23
2022-10-23T10:53:34.228Z,18.02
2022-10-23T10:55:42.365Z,18.08
2022-10-23T10:57:52.027Z,20.02
2022-10-23T10:59:59.319Z,21.77
2022-10-23T11:02:26.402Z,21.48
2022-10-23T11:04:36.462Z,23.42
2022-10-23T11:06:41.595Z,28.85
2022-10-23T11:08:57.448Z,25.90
2022-10-23T11:11:06.811Z,22.60
2022-10-23T11:13:37.798Z,23.52
2022-10-23T11:15:42.999Z,18.83
2022-10-23T11:17:50.505Z,20.15
2022-10-23T11:20:01.619Z,21.52
2022-10-23T11:22:20.570Z,29.05
2022-10-23T11:24:40.676Z,28.55
2022-10-23T11:26:53.074Z,27.60
2022-10-23T11:29:25.894Z,29.77
2022-10-23T11:31:55.019Z,20.30
2022-10-23T11:34:31.104Z,20.88
2022-10-23T11:36:45.782Z,18.98
2022-10-23T11:38:51.313Z,15.15
2022-10-23T11:40:57.772Z,15.63
2022-10-23T11:42:59.621Z,16.00
2022-10-23T11:45:01.549Z,15.98
2022-10-23T11:47:24.493Z,17.77
2022-10-23T11:49:26.401Z,18.13
2022-10-23T11:51:39.989Z,26.80
2022-10-23T11:53:41.918Z,16.45
2022-10-23T11:56:03.049Z,17.10
2022-10-23T11:58:05.240Z,17.50
2022-10-23T12:00:23.620Z,17.80
2022-10-23T12:02:37.521Z,16.17
2022-10-23T12:04:47.014Z,17.58
2022-10-23T12:07:01.650Z,15.60
2022-10-23T12:09:07.923Z,16.08
2022-10-23T12:11:41.242Z,17.35
2022-10-23T12:13:46.524Z,15.40
2022-10-23T12:15:57.127Z,17.15
2022-10-23T12:18:28.182Z,15.27
2022-10-23T12:20:36.435Z,15.60
2022-10-23T12:23:09.761Z,18.63
2022-10-23T12:25:33.852Z,17.33
2022-10-23T12:27:47.623Z,20.02
2022-10-23T12:30:11.274Z,18.02
2022-10-23T12:32:24.192Z,18.15
2022-10-23T12:34:47.857Z,18.48
2022-10-23T12:37:08.574Z,18.73
2022-10-23T12:39:30.791Z,19.10
2022-10-23T12:41:34.861Z,21.63
2022-10-23T12:43:38.100Z,20.60
2022-10-23T12:45:42.487Z,20.08
2022-10-23T12:47:48.654Z,22.02
2022-10-23T12:49:52.019Z,22.08
2022-10-23T12:52:05.696Z,22.73
2022-10-23T12:54:16.926Z,26.23
2022-10-23T12:56:19.164Z,20.80
2022-10-23T12:58:27.829Z,22.13
2022-10-23T13:00:31.145Z,22.67
2022-10-23T13:02:33.381Z,23.92
2022-10-23T13:04:36.911Z,23.85
2022-10-23T13:06:39.869Z,25.58
2022-10-23T13:08:45.959Z,24.30
2022-10-23T13:10:49.205Z,25.63
2022-10-23T13:13:00.158Z,26.17
2022-10-23T13:15:08.129Z,28.85
2022-10-23T13:17:11.909Z,27.35
2022-10-23T13:19:27.457Z,25.88
2022-10-23T13:21:30.291Z,25.27
2022-10-23T13:23:36.015Z,26.90
2022-10-23T13:25:39.361Z,26.95
2022-10-23T13:27:41.367Z,26.40
2022-10-23T13:29:43.467Z,26.15
2022-10-23T13:31:45.419Z,27.02
2022-10-23T13:33:52.677Z,26.45
2022-10-23T13:36:22.630Z,26.45
2022-10-23T13:38:36.404Z,26.73
2022-10-23T13:40:38.383Z,26.65
2022-10-23T13:42:40.380Z,26.77
2022-10-23T13:46:44.864Z,27.97
2022-10-23T13:48:47.397Z,26.27
2022-10-23T13:50:49.372Z,27.05
2022-10-23T13:52:51.285Z,25.60
2022-10-23T13:54:53.219Z,27.33
2022-10-23T13:56:58.388Z,24.80
2022-10-23T13:59:00.226Z,25.95
2022-10-23T14:01:02.181Z,25.10
2022-10-23T14:05:06.826Z,27.13
2022-10-23T14:09:16.775Z,27.37
2022-10-23T14:11:20.459Z,26.45
2022-10-23T14:13:22.424Z,27.15
2022-10-23T14:15:24.371Z,25.98
2022-10-23T14:17:27.167Z,27.20
2022-10-23T14:19:29.067Z,23.30
2022-10-23T14:21:31.019Z,23.60
2022-10-23T14:23:32.906Z,25.90
2022-10-23T14:25:34.743Z,26.45
2022-10-23T14:27:36.759Z,24.67
2022-10-23T14:31:42.065Z,26.63
2022-10-23T14:33:45.308Z,25.98
2022-10-23T14:35:49.515Z,25.17
2022-10-23T14:37:51.343Z,25.98
2022-10-23T14:39:53.315Z,27.17
2022-10-23T14:41:55.160Z,27.48
2022-10-23T14:43:57.059Z,26.75
2022-10-23T14:46:16.648Z,28.08
2022-10-23T14:48:18.771Z,28.60
2022-10-23T14:52:23.285Z,29.27
2022-10-23T14:54:25.113Z,30.25
2022-10-23T14:56:27.922Z,29.90
2022-10-23T14:58:29.968Z,27.08
2022-10-23T15:00:32.023Z,28.98
2022-10-23T15:04:35.810Z,28.67
2022-10-23T15:06:38.817Z,30.08
2022-10-23T15:08:40.832Z,31.13
2022-10-23T15:10:42.685Z,31.25
2022-10-23T15:12:44.864Z,31.05
2022-10-23T15:14:46.998Z,33.05
2022-10-23T15:16:48.917Z,34.28
2022-10-23T15:18:51.401Z,34.63
2022-10-23T15:20:53.452Z,36.55
2022-10-23T15:24:57.464Z,34.40
2022-10-23T15:29:02.628Z,38.75
2022-10-23T15:31:05.846Z,36.30
2022-10-23T15:33:07.650Z,39.40
2022-10-23T15:35:09.508Z,45.67
2022-10-23T15:37:11.593Z,67.05
2022-10-23T15:41:22.332Z,119.20
2022-10-23T15:43:24.310Z,111.78
2022-10-23T15:45:27.789Z,86.65
2022-10-23T15:47:32.434Z,73.53
2022-10-23T15:49:34.581Z,60.08
2022-10-23T15:53:38.953Z,50.30
2022-10-23T15:55:40.882Z,46.53
2022-10-23T15:57:42.793Z,45.33
2022-10-23T15:59:44.705Z,42.00
2022-10-23T16:01:46.891Z,40.90
2022-10-23T16:03:50.293Z,41.28
2022-10-23T16:05:52.240Z,36.30
2022-10-23T16:07:54.252Z,35.60
2022-10-23T16:09:56.255Z,37.65
2022-10-23T16:11:58.223Z,33.60
2022-10-23T16:14:00.629Z,32.60
2022-10-23T16:16:03.985Z,30.40
2022-10-23T16:18:08.952Z,28.80
2022-10-23T16:20:11.600Z,27.75
2022-10-23T16:22:13.425Z,28.40
2022-10-23T16:24:15.501Z,27.48
2022-10-23T16:28:19.908Z,26.25
2022-10-23T16:30:22.913Z,25.60
2022-10-23T16:32:24.893Z,24.75
2022-10-23T16:34:27.225Z,23.90
2022-10-23T16:36:29.498Z,23.85
2022-10-23T16:38:31.521Z,21.80
2022-10-23T16:40:33.405Z,22.63
2022-10-23T16:42:35.352Z,22.85
2022-10-23T16:44:37.227Z,24.00
2022-10-23T16:46:39.758Z,22.20
2022-10-23T16:48:41.915Z,22.48
2022-10-23T16:52:46.224Z,21.70
2022-10-23T16:54:49.335Z,20.95
2022-10-23T16:56:51.239Z,21.08
2022-10-23T16:58:53.153Z,18.42
2022-10-23T17:00:59.079Z,21.08
2022-10-23T17:03:05.287Z,19.35
2022-10-23T17:05:07.373Z,19.30
2022-10-23T17:09:11.279Z,18.70
2022-10-23T17:11:14.331Z,20.15
2022-10-23T17:13:17.427Z,18.40
2022-10-23T17:15:20.878Z,18.80
2022-10-23T17:17:22.967Z,18.05
2022-10-23T17:21:48.101Z,17.90
2022-10-23T17:23:51.180Z,17.02
2022-10-23T17:25:53.565Z,17.15
2022-10-23T17:27:55.406Z,16.85
2022-10-23T17:29:58.110Z,17.15
2022-10-23T17:32:00.066Z,16.30
2022-10-23T17:34:04.983Z,17.42
2022-10-23T17:36:07.204Z,15.93
2022-10-23T17:38:09.103Z,15.90
2022-10-23T17:40:11.369Z,13.52
2022-10-23T17:42:13.260Z,15.50
2022-10-23T17:44:16.018Z,14.98
2022-10-23T17:46:19.153Z,14.38
2022-10-23T17:48:21.211Z,13.70
2022-10-23T17:52:26.024Z,14.50
2022-10-23T17:54:28.035Z,14.73
2022-10-23T17:56:31.580Z,14.30
2022-10-23T17:58:34.601Z,13.13
2022-10-23T18:00:37.292Z,14.35
2022-10-23T18:02:39.250Z,15.70
2022-10-23T18:04:41.134Z,14.23
2022-10-23T18:06:45.419Z,14.40
2022-10-23T18:08:47.687Z,14.60
2022-10-23T18:10:49.535Z,15.95
2022-10-23T18:12:51.447Z,15.45
2022-10-23T18:14:53.373Z,15.13
2022-10-23T18:16:55.339Z,15.85
2022-10-23T18:18:59.925Z,14.05
2022-10-23T18:21:02.349Z,13.75
2022-10-23T18:23:04.299Z,13.70
2022-10-23T18:25:06.433Z,15.43
2022-10-23T18:29:11.892Z,14.43
2022-10-23T18:31:15.465Z,14.55
2022-10-23T18:33:18.712Z,13.63
2022-10-23T18:35:20.663Z,13.43
2022-10-23T18:37:22.507Z,14.48
2022-10-23T18:39:25.907Z,13.65
2022-10-23T18:41:28.180Z,13.68
2022-10-23T18:43:43.254Z,13.60
2022-10-23T18:45:45.911Z,13.80
2022-10-23T18:47:47.832Z,13.50
2022-10-23T18:49:49.657Z,15.23
2022-10-23T18:51:51.813Z,15.68
2022-10-23T18:53:54.490Z,13.80
2022-10-23T18:55:56.369Z,14.25
2022-10-23T18:57:58.258Z,13.38
2022-10-23T19:00:01.039Z,13.38
2022-10-23T19:02:03.329Z,13.68
2022-10-23T19:04:06.191Z,12.15
2022-10-23T19:06:08.599Z,13.75
2022-10-23T19:08:11.534Z,14.25
2022-10-23T19:10:17.986Z,13.95
2022-10-23T19:12:19.988Z,15.30
2022-10-23T19:14:21.925Z,14.02
2022-10-23T19:16:40.770Z,15.00
2022-10-23T19:18:48.977Z,15.98
2022-10-23T19:20:51.120Z,17.05
2022-10-23T19:25:02.651Z,16.08
2022-10-23T19:27:05.415Z,15.82
2022-10-23T19:29:09.856Z,16.08
2022-10-23T19:31:12.271Z,17.75
2022-10-23T19:33:15.511Z,21.35
2022-10-23T19:35:19.880Z,19.55
2022-10-23T19:37:23.591Z,18.38
2022-10-23T19:39:26.523Z,16.63
2022-10-23T19:41:28.494Z,17.10
2022-10-23T19:43:30.475Z,13.18
2022-10-23T19:45:32.475Z,15.52
2022-10-23T19:47:34.943Z,16.55
2022-10-23T19:49:36.850Z,12.45
2022-10-23T19:51:38.999Z,13.95
2022-10-23T19:55:44.285Z,9.93
2022-10-23T19:57:46.364Z,9.95
2022-10-23T19:59:50.269Z,10.90
2022-10-23T20:01:52.250Z,10.07
2022-10-23T20:03:55.586Z,11.48
2022-10-23T20:05:57.557Z,10.85
2022-10-23T20:07:59.836Z,10.30
2022-10-23T20:10:01.868Z,12.23
2022-10-23T20:12:04.152Z,12.50
2022-10-23T20:14:06.814Z,11.43
2022-10-23T20:16:08.705Z,9.35
2022-10-23T20:18:10.678Z,11.13
2022-10-23T20:20:12.639Z,9.95
2022-10-23T20:22:18.332Z,10.05
2022-10-23T20:24:20.955Z,9.05
2022-10-23T20:26:23.073Z,7.22
2022-10-23T20:28:25.366Z,8.00
2022-10-23T20:30:28.463Z,8.50
2022-10-23T20:32:30.336Z,8.20
2022-10-23T20:34:32.527Z,8.55
2022-10-23T20:36:46.436Z,8.02
2022-10-23T20:38:49.560Z,8.18
2022-10-23T20:40:51.416Z,7.68
2022-10-23T20:42:53.305Z,7.70
2022-10-23T20:44:55.145Z,7.88
2022-10-23T20:46:57.565Z,7.70
2022-10-23T20:48:59.892Z,7.75
2022-10-23T20:51:08.461Z,7.53
2022-10-23T20:53:10.367Z,7.38
2022-10-23T20:55:12.829Z,7.63
2022-10-23T20:57:17.949Z,7.18
2022-10-23T20:59:23.467Z,6.65
2022-10-23T21:01:26.541Z,6.40
2022-10-23T21:03:28.587Z,6.95
2022-10-23T21:05:30.409Z,7.47
2022-10-23T21:07:32.286Z,7.32
2022-10-23T21:09:34.204Z,6.25
2022-10-23T21:11:38.096Z,6.20
2022-10-23T21:13:40.137Z,6.88
2022-10-23T21:15:42.087Z,6.30
2022-10-23T21:17:44.184Z,6.55
2022-10-23T21:21:48.671Z,6.38
2022-10-23T21:23:52.892Z,6.43
2022-10-23T21:25:54.798Z,6.63
2022-10-23T21:27:56.673Z,7.90
2022-10-23T21:29:58.723Z,6.97
2022-10-23T21:32:03.943Z,7.93
2022-10-23T21:34:06.151Z,10.15
2022-10-23T21:36:13.975Z,14.10
2022-10-23T21:38:16.021Z,28.75
2022-10-23T21:40:17.954Z,43.60
2022-10-23T21:42:19.907Z,40.80
2022-10-23T21:44:21.939Z,39.30
2022-10-23T21:46:25.742Z,43.15
2022-10-23T21:48:28.619Z,36.13
2022-10-23T21:50:30.509Z,34.50
2022-10-23T21:52:32.725Z,30.98
2022-10-23T21:54:34.795Z,29.58
2022-10-23T21:58:45.046Z,19.98
2022-10-23T22:00:47.067Z,19.15
2022-10-23T22:06:54.021Z,11.65
2022-10-23T22:09:00.237Z,10.90
2022-10-23T22:11:05.290Z,13.02
2022-10-23T22:13:07.163Z,16.17
2022-10-23T22:15:09.467Z,12.68
2022-10-23T22:17:11.273Z,13.93
2022-10-23T22:19:14.937Z,11.75
2022-10-23T22:21:23.952Z,11.63
2022-10-23T22:23:25.858Z,14.48
2022-10-23T22:25:27.719Z,12.55
2022-10-23T22:27:29.597Z,18.58
2022-10-23T22:29:32.081Z,16.20
2022-10-23T22:31:35.416Z,17.25
2022-10-23T22:33:37.285Z,20.25
2022-10-23T22:35:39.177Z,32.50
2022-10-23T22:37:41.018Z,24.05
2022-10-23T22:39:43.322Z,27.80
2022-10-23T22:41:45.220Z,34.88
2022-10-23T22:43:47.107Z,26.80
2022-10-23T22:45:48.977Z,22.48
2022-10-23T22:47:50.806Z,19.50
2022-10-23T22:49:52.663Z,18.90
2022-10-23T22:51:54.603Z,19.90
2022-10-23T22:53:58.155Z,16.35
2022-10-23T22:56:00.102Z,18.45
2022-10-23T22:58:01.980Z,17.55
2022-10-23T23:00:06.300Z,14.82
2022-10-23T23:02:08.319Z,16.20
2022-10-23T23:04:25.866Z,19.83
2022-10-23T23:06:35.384Z,22.02
2022-10-23T23:08:38.428Z,14.65
2022-10-23T23:10:40.714Z,18.83
2022-10-23T23:12:42.568Z,18.42
2022-10-23T23:14:44.432Z,17.02
2022-10-23T23:16:46.402Z,18.40
2022-10-23T23:18:48.839Z,24.55
2022-10-23T23:20:51.170Z,12.52
2022-10-23T23:22:53.007Z,8.38
2022-10-23T23:24:54.955Z,13.15
2022-10-23T23:26:56.778Z,14.40
2022-10-23T23:28:58.648Z,11.88
2022-10-23T23:31:09.474Z,11.32
2022-10-23T23:33:12.253Z,14.00
2022-10-23T23:35:14.520Z,14.60
2022-10-23T23:37:16.603Z,15.23
2022-10-23T23:41:21.939Z,23.23
2022-10-23T23:43:23.825Z,32.67
2022-10-23T23:45:25.801Z,36.85
2022-10-23T23:47:28.728Z,50.08
2022-10-23T23:49:30.788Z,36.92
2022-10-23T23:51:34.295Z,36.28
2022-10-23T23:53:37.192Z,31.60
2022-10-23T23:55:40.127Z,31.05
2022-10-23T23:57:42.563Z,24.67
2022-10-23T23:59:44.773Z,19.85
